createdAt,value
2023-04-30T00:02:08.838Z,13.43
2023-04-30T00:04:55.521Z,12.70
2023-04-30T00:07:43.992Z,13.73
2023-04-30T00:10:31.111Z,11.33
2023-04-30T00:13:18.881Z,12.17
2023-04-30T00:16:06.251Z,10.83
2023-04-30T00:18:53.657Z,13.10
2023-04-30T00:21:40.620Z,12.10
2023-04-30T00:24:29.011Z,12.47
2023-04-30T00:27:15.909Z,10.77
2023-04-30T00:30:02.784Z,13.13
2023-04-30T00:32:50.019Z,11.20
2023-04-30T00:35:37.281Z,12.27
2023-04-30T00:38:24.274Z,11.43
2023-04-30T00:41:12.853Z,13.30
2023-04-30T00:43:59.804Z,12.50
2023-04-30T00:46:46.520Z,15.27
2023-04-30T00:49:33.752Z,11.87
2023-04-30T00:52:20.586Z,14.30
2023-04-30T00:55:08.363Z,10.37
2023-04-30T00:57:57.090Z,10.97
2023-04-30T01:00:47.187Z,11.30
2023-04-30T01:03:36.099Z,11.30
2023-04-30T01:06:23.676Z,11.33
2023-04-30T01:09:11.050Z,9.97
2023-04-30T01:12:09.661Z,10.80
2023-04-30T01:15:05.513Z,14.20
2023-04-30T01:17:57.843Z,10.57
2023-04-30T01:20:50.072Z,12.17
2023-04-30T01:23:55.030Z,11.00
2023-04-30T01:26:57.108Z,11.97
2023-04-30T01:29:45.564Z,10.60
2023-04-30T01:32:33.041Z,11.23
2023-04-30T01:35:20.053Z,10.30
2023-04-30T01:38:17.828Z,12.60
2023-04-30T01:41:16.192Z,10.53
2023-04-30T01:44:17.197Z,14.00
2023-04-30T01:47:14.143Z,11.43
2023-04-30T01:50:11.462Z,13.67
2023-04-30T01:53:01.133Z,14.20
2023-04-30T01:55:53.627Z,12.30
2023-04-30T01:58:43.880Z,11.90
2023-04-30T02:01:33.152Z,10.43
2023-04-30T02:04:22.188Z,11.37
2023-04-30T02:07:09.419Z,12.20
2023-04-30T02:09:56.415Z,10.77
2023-04-30T02:12:43.520Z,11.03
2023-04-30T02:15:30.804Z,13.07
2023-04-30T02:18:17.877Z,11.40
2023-04-30T02:21:06.514Z,11.87
2023-04-30T02:23:53.913Z,12.00
2023-04-30T02:26:40.902Z,13.10
2023-04-30T02:29:27.878Z,8.63
2023-04-30T02:32:15.130Z,10.63
2023-04-30T02:35:02.535Z,12.07
2023-04-30T02:37:51.146Z,11.60
2023-04-30T02:40:38.306Z,11.00
2023-04-30T02:43:25.281Z,15.40
2023-04-30T02:46:12.015Z,13.57
2023-04-30T02:48:58.677Z,11.23
2023-04-30T02:51:45.661Z,15.67
2023-04-30T02:54:34.061Z,11.00
2023-04-30T02:57:21.551Z,10.87
2023-04-30T03:00:09.730Z,13.77
2023-04-30T03:02:56.800Z,10.47
2023-04-30T03:05:43.793Z,9.37
2023-04-30T03:08:31.126Z,13.87
2023-04-30T03:11:19.592Z,9.87
2023-04-30T03:14:06.420Z,11.67
2023-04-30T03:16:54.140Z,16.47
2023-04-30T03:19:43.950Z,9.30
2023-04-30T03:22:31.510Z,10.83
2023-04-30T03:25:18.576Z,10.90
2023-04-30T03:28:07.278Z,9.57
2023-04-30T03:30:54.192Z,12.67
2023-04-30T03:33:41.328Z,11.97
2023-04-30T03:36:28.855Z,9.23
2023-04-30T03:39:17.001Z,11.97
2023-04-30T03:42:03.908Z,11.00
2023-04-30T03:44:52.096Z,9.37
2023-04-30T03:47:38.940Z,8.83
2023-04-30T03:50:26.099Z,9.20
2023-04-30T03:53:13.063Z,11.93
2023-04-30T03:56:00.517Z,8.10
2023-04-30T03:58:47.603Z,10.70
2023-04-30T04:01:36.126Z,12.60
2023-04-30T04:04:23.090Z,9.83
2023-04-30T04:07:11.605Z,8.03
2023-04-30T04:09:58.472Z,11.77
2023-04-30T04:12:45.450Z,11.60
2023-04-30T04:15:32.348Z,9.63
2023-04-30T04:18:20.376Z,8.43
2023-04-30T04:21:07.799Z,12.03
2023-04-30T04:23:54.967Z,9.20
2023-04-30T04:26:42.667Z,8.40
2023-04-30T04:29:29.878Z,10.90
2023-04-30T04:32:16.941Z,11.03
2023-04-30T04:35:06.498Z,8.93
2023-04-30T04:37:53.522Z,9.97
2023-04-30T04:40:40.991Z,8.97
2023-04-30T04:43:27.816Z,10.27
2023-04-30T04:46:16.709Z,11.87
2023-04-30T04:49:04.098Z,12.27
2023-04-30T04:51:52.568Z,12.10
2023-04-30T04:54:39.399Z,10.30
2023-04-30T04:57:26.817Z,8.97
2023-04-30T05:00:14.305Z,9.03
2023-04-30T05:03:01.445Z,10.20
2023-04-30T05:05:49.168Z,9.33
2023-04-30T05:08:38.594Z,10.57
2023-04-30T05:11:25.575Z,10.13
2023-04-30T05:14:12.695Z,11.60
2023-04-30T05:16:59.935Z,10.40
2023-04-30T05:19:47.689Z,10.50
2023-04-30T05:22:34.690Z,9.00
2023-04-30T05:25:26.220Z,9.17
2023-04-30T05:28:13.415Z,10.50
2023-04-30T05:31:00.176Z,9.20
2023-04-30T05:33:47.062Z,9.67
2023-04-30T05:36:34.086Z,10.67
2023-04-30T05:39:21.129Z,11.00
2023-04-30T05:42:09.294Z,11.47
2023-04-30T05:44:56.803Z,9.23
2023-04-30T05:47:43.978Z,7.33
2023-04-30T05:50:30.976Z,11.20
2023-04-30T05:53:18.081Z,9.00
2023-04-30T05:56:05.095Z,10.40
2023-04-30T05:58:53.878Z,9.07
2023-04-30T06:01:40.728Z,11.53
2023-04-30T06:04:27.631Z,8.60
2023-04-30T06:07:14.895Z,8.07
2023-04-30T06:10:01.844Z,8.73
2023-04-30T06:12:48.727Z,9.07
2023-04-30T06:15:37.910Z,9.50
2023-04-30T06:18:24.867Z,9.63
2023-04-30T06:21:12.326Z,8.53
2023-04-30T06:23:59.474Z,10.47
2023-04-30T06:26:46.596Z,7.53
2023-04-30T06:29:33.940Z,10.53
2023-04-30T06:32:22.254Z,8.63
2023-04-30T06:35:10.031Z,9.20
2023-04-30T06:37:57.360Z,7.67
2023-04-30T06:40:44.273Z,8.97
2023-04-30T06:43:31.086Z,10.80
2023-04-30T06:46:17.883Z,8.30
2023-04-30T06:49:06.962Z,8.73
2023-04-30T06:51:54.552Z,9.43
2023-04-30T06:54:43.027Z,8.27
2023-04-30T06:57:31.238Z,8.73
2023-04-30T07:00:18.474Z,7.85
2023-04-30T07:03:05.668Z,7.05
2023-04-30T07:05:54.491Z,6.82
2023-04-30T07:08:44.029Z,6.28
2023-04-30T07:11:31.271Z,5.68
2023-04-30T07:14:18.276Z,8.40
2023-04-30T07:17:05.287Z,9.35
2023-04-30T07:19:52.389Z,6.15
2023-04-30T07:22:40.823Z,6.40
2023-04-30T07:25:28.346Z,6.20
2023-04-30T07:28:15.755Z,6.60
2023-04-30T07:31:03.065Z,6.05
2023-04-30T07:33:50.757Z,8.00
2023-04-30T07:36:38.755Z,6.93
2023-04-30T07:39:27.304Z,7.03
2023-04-30T07:42:14.033Z,7.03
2023-04-30T07:45:01.150Z,6.35
2023-04-30T07:47:48.859Z,7.18
2023-04-30T07:50:35.851Z,6.55
2023-04-30T07:53:22.809Z,7.38
2023-04-30T07:56:11.023Z,7.03
2023-04-30T07:58:57.912Z,7.15
2023-04-30T08:01:44.682Z,8.32
2023-04-30T08:04:31.795Z,8.05
2023-04-30T08:07:21.086Z,6.07
2023-04-30T08:10:09.536Z,6.03
2023-04-30T08:12:57.947Z,7.22
2023-04-30T08:15:44.790Z,6.93
2023-04-30T08:18:32.683Z,5.68
2023-04-30T08:21:19.455Z,7.43
2023-04-30T08:24:06.338Z,6.50
2023-04-30T08:26:54.797Z,6.85
2023-04-30T08:29:43.348Z,6.68
2023-04-30T08:32:30.695Z,5.30
2023-04-30T08:35:18.061Z,5.90
2023-04-30T08:38:05.196Z,8.13
2023-04-30T08:41:05.085Z,5.35
2023-04-30T08:43:54.957Z,5.55
2023-04-30T08:46:46.378Z,6.78
2023-04-30T08:49:33.292Z,6.68
2023-04-30T08:52:20.830Z,6.95
2023-04-30T08:55:11.308Z,5.60
2023-04-30T08:57:58.243Z,5.47
2023-04-30T09:00:47.326Z,5.60
2023-04-30T09:03:35.831Z,5.43
2023-04-30T09:06:22.826Z,6.68
2023-04-30T09:09:12.451Z,4.38
2023-04-30T09:12:18.663Z,6.80
2023-04-30T09:15:09.099Z,6.05
2023-04-30T09:18:09.036Z,7.03
2023-04-30T09:20:59.020Z,3.90
2023-04-30T09:24:01.793Z,5.47
2023-04-30T09:26:49.389Z,4.55
2023-04-30T09:29:38.089Z,5.18
2023-04-30T09:32:25.054Z,5.68
2023-04-30T09:35:30.851Z,5.95
2023-04-30T09:38:30.408Z,5.93
2023-04-30T09:41:25.734Z,4.63
2023-04-30T09:44:27.899Z,4.50
2023-04-30T09:47:16.464Z,4.68
2023-04-30T09:50:03.876Z,5.90
2023-04-30T09:52:54.596Z,4.80
2023-04-30T09:55:45.874Z,3.95
2023-04-30T09:58:37.642Z,5.50
2023-04-30T10:01:29.334Z,4.93
2023-04-30T10:04:17.879Z,5.78
2023-04-30T10:07:09.804Z,5.00
2023-04-30T10:10:00.119Z,4.78
2023-04-30T10:12:52.763Z,6.80
2023-04-30T10:15:41.302Z,5.20
2023-04-30T10:18:32.423Z,4.57
2023-04-30T10:21:22.115Z,5.30
2023-04-30T10:24:10.534Z,3.85
2023-04-30T10:26:58.725Z,6.25
2023-04-30T10:29:48.596Z,6.15
2023-04-30T10:32:43.258Z,5.22
2023-04-30T10:35:34.803Z,6.40
2023-04-30T10:38:25.483Z,4.85
2023-04-30T10:41:12.315Z,5.13
2023-04-30T10:44:02.003Z,7.30
2023-04-30T10:46:50.539Z,4.90
2023-04-30T10:49:37.765Z,4.60
2023-04-30T10:52:29.982Z,5.53
2023-04-30T10:55:19.316Z,7.43
2023-04-30T10:58:25.648Z,5.22
2023-04-30T11:01:14.947Z,3.45
2023-04-30T11:04:11.047Z,5.75
2023-04-30T11:07:08.463Z,6.18
2023-04-30T11:10:02.051Z,4.63
2023-04-30T11:12:50.886Z,6.65
2023-04-30T11:15:42.640Z,5.68
2023-04-30T11:18:31.199Z,5.13
2023-04-30T11:21:22.423Z,4.60
2023-04-30T11:24:12.580Z,5.30
2023-04-30T11:27:06.580Z,4.05
2023-04-30T11:29:54.965Z,5.10
2023-04-30T11:32:42.595Z,5.55
2023-04-30T11:35:30.432Z,5.38
2023-04-30T11:38:19.529Z,5.88
2023-04-30T11:41:06.752Z,4.47
2023-04-30T11:43:53.967Z,4.63
2023-04-30T11:46:43.627Z,4.90
2023-04-30T11:49:31.350Z,4.63
2023-04-30T11:52:22.571Z,4.32
2023-04-30T11:55:19.112Z,3.22
2023-04-30T11:58:05.789Z,4.00
2023-04-30T12:00:53.591Z,4.70
2023-04-30T12:03:44.575Z,4.03
2023-04-30T12:06:31.626Z,5.97
2023-04-30T12:09:18.979Z,4.25
2023-04-30T12:12:07.507Z,3.47
2023-04-30T12:14:54.802Z,4.25
2023-04-30T12:17:42.131Z,3.30
2023-04-30T12:20:32.262Z,5.43
2023-04-30T12:23:19.303Z,3.80
2023-04-30T12:26:05.944Z,3.35
2023-04-30T12:28:54.266Z,5.53
2023-04-30T12:31:41.548Z,4.40
2023-04-30T12:34:31.535Z,4.70
2023-04-30T12:37:20.127Z,4.95
2023-04-30T12:40:09.347Z,3.92
2023-04-30T12:43:02.546Z,3.45
2023-04-30T12:45:52.820Z,4.72
2023-04-30T12:48:45.980Z,5.10
2023-04-30T12:51:36.223Z,2.88
2023-04-30T12:54:27.788Z,5.28
2023-04-30T12:57:15.072Z,3.33
2023-04-30T13:00:04.353Z,4.03
2023-04-30T13:02:53.202Z,4.50
2023-04-30T13:05:40.334Z,6.05
2023-04-30T13:08:27.994Z,5.10
2023-04-30T13:11:14.878Z,4.88
2023-04-30T13:14:01.824Z,3.85
2023-04-30T13:16:48.916Z,3.42
2023-04-30T13:19:37.132Z,6.47
2023-04-30T13:22:29.577Z,4.45
2023-04-30T13:25:17.121Z,4.13
2023-04-30T13:28:04.108Z,5.35
2023-04-30T13:30:51.022Z,3.85
2023-04-30T13:33:38.410Z,5.93
2023-04-30T13:36:27.145Z,5.72
2023-04-30T13:39:14.344Z,4.35
2023-04-30T13:42:01.853Z,4.35
2023-04-30T13:44:50.118Z,4.65
2023-04-30T13:47:37.217Z,6.10
2023-04-30T13:50:24.410Z,5.13
2023-04-30T13:53:13.099Z,5.45
2023-04-30T13:56:00.337Z,4.72
2023-04-30T13:58:47.631Z,5.40
2023-04-30T14:01:34.314Z,5.55
2023-04-30T14:04:21.078Z,6.82
2023-04-30T14:07:07.801Z,5.50
2023-04-30T14:09:56.360Z,2.80
2023-04-30T14:12:43.542Z,4.85
2023-04-30T14:15:32.661Z,4.85
2023-04-30T14:18:22.806Z,4.88
2023-04-30T14:21:09.881Z,4.40
2023-04-30T14:23:57.086Z,5.55
2023-04-30T14:26:45.676Z,5.18
2023-04-30T14:29:32.411Z,5.40
2023-04-30T14:32:21.249Z,5.25
2023-04-30T14:35:09.989Z,3.90
2023-04-30T14:37:57.112Z,4.20
2023-04-30T14:40:45.081Z,6.10
2023-04-30T14:43:33.528Z,5.18
2023-04-30T14:46:21.004Z,4.15
2023-04-30T14:49:07.998Z,5.28
2023-04-30T14:51:55.043Z,7.75
2023-04-30T14:54:41.811Z,5.43
2023-04-30T14:57:28.933Z,4.15
2023-04-30T15:00:17.795Z,6.25
2023-04-30T15:03:05.344Z,5.93
2023-04-30T15:05:52.723Z,2.47
2023-04-30T15:08:40.901Z,3.03
2023-04-30T15:11:28.196Z,8.63
2023-04-30T15:14:16.968Z,5.65
2023-04-30T15:17:05.458Z,4.20
2023-04-30T15:19:53.667Z,7.05
2023-04-30T15:22:41.101Z,4.78
2023-04-30T15:25:27.982Z,3.80
2023-04-30T15:28:15.549Z,6.63
2023-04-30T15:31:03.226Z,4.03
2023-04-30T15:33:51.690Z,4.90
2023-04-30T15:36:38.868Z,6.28
2023-04-30T15:39:26.775Z,3.80
2023-04-30T15:42:13.796Z,8.45
2023-04-30T15:45:00.512Z,8.02
2023-04-30T15:47:48.187Z,5.43
2023-04-30T15:50:36.493Z,4.70
2023-04-30T15:53:23.631Z,4.97
2023-04-30T15:56:10.936Z,5.63
2023-04-30T15:58:58.460Z,4.88
2023-04-30T16:01:45.556Z,8.73
2023-04-30T16:04:32.583Z,4.97
2023-04-30T16:07:20.924Z,4.38
2023-04-30T16:10:09.777Z,5.05
2023-04-30T16:12:58.240Z,4.18
2023-04-30T16:15:44.999Z,5.43
2023-04-30T16:18:31.741Z,4.82
2023-04-30T16:21:19.013Z,4.55
2023-04-30T16:24:07.241Z,6.18
2023-04-30T16:26:54.109Z,6.70
2023-04-30T16:29:47.470Z,5.63
2023-04-30T16:32:34.929Z,6.90
2023-04-30T16:35:21.968Z,5.60
2023-04-30T16:38:09.157Z,5.50
2023-04-30T16:40:57.733Z,5.65
2023-04-30T16:43:45.972Z,5.30
2023-04-30T16:46:33.380Z,6.82
2023-04-30T16:49:20.194Z,4.30
2023-04-30T16:52:07.461Z,9.07
2023-04-30T16:54:54.892Z,18.00
2023-04-30T16:57:43.262Z,9.13
2023-04-30T17:00:30.391Z,9.30
2023-04-30T17:03:17.546Z,8.20
2023-04-30T17:06:05.848Z,4.87
2023-04-30T17:08:53.370Z,5.13
2023-04-30T17:11:42.126Z,4.63
2023-04-30T17:14:31.430Z,6.90
2023-04-30T17:17:18.481Z,5.57
2023-04-30T17:20:06.708Z,4.88
2023-04-30T17:22:55.905Z,6.70
2023-04-30T17:25:43.122Z,7.47
2023-04-30T17:28:30.281Z,4.70
2023-04-30T17:31:19.278Z,5.80
2023-04-30T17:34:06.578Z,7.97
2023-04-30T17:36:53.569Z,4.15
2023-04-30T17:39:40.635Z,5.60
2023-04-30T17:42:27.974Z,5.00
2023-04-30T17:45:15.428Z,5.40
2023-04-30T17:48:03.856Z,5.27
2023-04-30T17:50:50.783Z,6.10
2023-04-30T17:53:37.993Z,6.70
2023-04-30T17:56:26.274Z,9.73
2023-04-30T17:59:13.824Z,5.07
2023-04-30T18:02:00.637Z,5.50
2023-04-30T18:04:49.785Z,5.67
2023-04-30T18:07:36.966Z,7.27
2023-04-30T18:10:24.158Z,4.27
2023-04-30T18:13:11.510Z,4.43
2023-04-30T18:15:58.739Z,4.57
2023-04-30T18:18:45.709Z,6.33
2023-04-30T18:21:33.810Z,7.10
2023-04-30T18:24:21.767Z,5.50
2023-04-30T18:27:09.441Z,5.37
2023-04-30T18:29:57.993Z,7.73
2023-04-30T18:32:45.250Z,7.23
2023-04-30T18:35:33.033Z,5.90
2023-04-30T18:38:22.354Z,6.00
2023-04-30T18:41:09.207Z,4.60
2023-04-30T18:43:56.184Z,5.40
2023-04-30T18:46:43.184Z,8.60
2023-04-30T18:49:30.875Z,6.47
2023-04-30T18:52:18.260Z,4.13
2023-04-30T18:55:07.696Z,8.97
2023-04-30T18:57:56.408Z,6.30
2023-04-30T19:00:44.597Z,6.33
2023-04-30T19:03:31.994Z,5.87
2023-04-30T19:06:18.969Z,5.60
2023-04-30T19:09:06.046Z,6.90
2023-04-30T19:11:54.667Z,8.10
2023-04-30T19:14:41.570Z,5.47
2023-04-30T19:17:28.929Z,5.83
2023-04-30T19:20:16.128Z,9.20
2023-04-30T19:23:03.754Z,7.03
2023-04-30T19:25:50.765Z,5.87
2023-04-30T19:28:39.277Z,6.53
2023-04-30T19:31:26.867Z,5.07
2023-04-30T19:34:16.038Z,5.77
2023-04-30T19:37:03.673Z,5.10
2023-04-30T19:39:50.530Z,7.17
2023-04-30T19:42:37.716Z,6.10
2023-04-30T19:45:26.094Z,5.83
2023-04-30T19:48:13.449Z,7.57
2023-04-30T19:51:00.357Z,5.83
2023-04-30T19:53:47.831Z,9.90
2023-04-30T19:56:34.935Z,5.93
2023-04-30T19:59:22.129Z,6.63
2023-04-30T20:02:11.153Z,5.03
2023-04-30T20:04:58.949Z,5.70
2023-04-30T20:07:45.777Z,7.07
2023-04-30T20:10:33.996Z,5.30
2023-04-30T20:13:22.569Z,5.40
2023-04-30T20:16:12.583Z,6.60
2023-04-30T20:19:01.266Z,7.97
2023-04-30T20:21:49.475Z,5.23
2023-04-30T20:24:36.533Z,5.33
2023-04-30T20:27:23.691Z,7.20
2023-04-30T20:30:11.759Z,6.33
2023-04-30T20:32:58.732Z,6.83
2023-04-30T20:35:47.713Z,7.17
2023-04-30T20:38:34.811Z,6.17
2023-04-30T20:41:21.945Z,7.63
2023-04-30T20:44:08.809Z,6.73
2023-04-30T20:46:56.277Z,5.67
2023-04-30T20:49:43.653Z,4.60
2023-04-30T20:52:31.808Z,11.57
2023-04-30T20:55:18.958Z,6.93
2023-04-30T20:58:06.145Z,6.53
2023-04-30T21:00:53.011Z,5.53
2023-04-30T21:03:39.742Z,4.77
2023-04-30T21:06:26.974Z,11.37
2023-04-30T21:09:15.518Z,4.53
2023-04-30T21:12:04.380Z,7.20
2023-04-30T21:14:51.986Z,7.17
2023-04-30T21:17:39.061Z,6.57
2023-04-30T21:20:26.147Z,6.63
2023-04-30T21:23:12.953Z,8.37
2023-04-30T21:26:03.843Z,5.87
2023-04-30T21:28:52.547Z,5.57
2023-04-30T21:31:39.322Z,7.17
2023-04-30T21:34:26.533Z,5.30
2023-04-30T21:37:15.652Z,5.17
2023-04-30T21:40:04.344Z,6.03
2023-04-30T21:42:53.406Z,4.57
2023-04-30T21:45:42.630Z,8.07
2023-04-30T21:48:30.333Z,8.43
2023-04-30T21:51:20.205Z,9.53
2023-04-30T21:54:07.373Z,6.10
2023-04-30T21:56:54.310Z,6.53
2023-04-30T21:59:43.075Z,8.77
2023-04-30T22:02:30.273Z,6.93
2023-04-30T22:05:18.147Z,8.93
2023-04-30T22:08:05.446Z,6.07
2023-04-30T22:10:58.486Z,6.67
2023-04-30T22:13:45.511Z,6.40
2023-04-30T22:16:34.149Z,6.90
2023-04-30T22:19:21.322Z,6.53
2023-04-30T22:22:08.065Z,5.77
2023-04-30T22:24:55.180Z,5.00
2023-04-30T22:27:42.173Z,7.97
2023-04-30T22:30:29.598Z,6.80
2023-04-30T22:33:17.968Z,5.60
2023-04-30T22:36:06.490Z,8.33
2023-04-30T22:38:53.913Z,6.37
2023-04-30T22:41:46.352Z,8.07
2023-04-30T22:44:34.109Z,5.63
2023-04-30T22:47:20.974Z,5.73
2023-04-30T22:50:10.898Z,6.73
2023-04-30T22:52:57.774Z,10.40
2023-04-30T22:55:47.127Z,5.83
2023-04-30T22:58:34.045Z,6.97
2023-04-30T23:01:21.177Z,7.97
2023-04-30T23:04:09.648Z,6.70
2023-04-30T23:06:58.116Z,6.70
2023-04-30T23:09:45.246Z,7.73
2023-04-30T23:12:32.312Z,5.67
2023-04-30T23:15:19.403Z,5.93
2023-04-30T23:18:06.601Z,4.57
2023-04-30T23:20:55.792Z,6.87
2023-04-30T23:23:44.412Z,5.87
2023-04-30T23:26:31.593Z,5.93
2023-04-30T23:29:18.566Z,7.60
2023-04-30T23:32:05.964Z,6.10
2023-04-30T23:34:52.993Z,5.20
2023-04-30T23:37:42.326Z,8.57
2023-04-30T23:40:30.768Z,10.10
2023-04-30T23:43:17.387Z,6.50
2023-04-30T23:46:04.236Z,6.37
2023-04-30T23:48:51.933Z,6.10
2023-04-30T23:51:38.850Z,6.03
2023-04-30T23:54:25.803Z,10.63
2023-04-30T23:57:14.204Z,8.53
